createdAt,value
2019-04-29T00:01:30.559Z,101662.02
2019-04-29T00:04:00.525Z,101667.41
2019-04-29T00:06:30.620Z,101661.50
2019-04-29T00:09:00.560Z,101667.59
2019-04-29T00:11:33.677Z,101667.78
2019-04-29T00:14:03.571Z,101677.62
2019-04-29T00:16:39.863Z,101676.72
2019-04-29T00:19:19.021Z,101678.70
2019-04-29T00:21:50.029Z,101673.34
2019-04-29T00:24:20.865Z,101681.39
2019-04-29T00:26:50.773Z,101681.75
2019-04-29T00:29:20.804Z,101674.95
2019-04-29T00:31:50.723Z,101676.38
2019-04-29T00:34:20.965Z,101682.30
2019-04-29T00:37:04.138Z,101679.80
2019-04-29T00:39:57.357Z,101676.03
2019-04-29T00:42:40.956Z,101677.63
2019-04-29T00:45:10.974Z,101676.91
2019-04-29T00:47:40.851Z,101684.26
2019-04-29T00:50:12.422Z,101686.59
2019-04-29T00:52:43.272Z,101680.31
2019-04-29T00:55:16.096Z,101684.26
2019-04-29T00:57:46.269Z,101679.80
2019-04-29T01:00:25.681Z,101678.16
2019-04-29T01:02:55.697Z,101679.59
2019-04-29T01:05:25.835Z,101676.39
2019-04-29T01:07:55.792Z,101675.83
2019-04-29T01:10:25.953Z,101668.65
2019-04-29T01:12:55.961Z,101670.46
2019-04-29T01:15:25.817Z,101669.38
2019-04-29T01:17:55.948Z,101672.59
2019-04-29T01:20:25.817Z,101677.09
2019-04-29T01:22:55.690Z,101672.25
2019-04-29T01:25:25.789Z,101668.10
2019-04-29T01:28:04.438Z,101671.52
2019-04-29T01:31:09.810Z,101671.86
2019-04-29T01:33:39.695Z,101668.10
2019-04-29T01:36:40.998Z,101668.10
2019-04-29T01:39:12.789Z,101674.37
2019-04-29T01:42:00.336Z,101671.13
2019-04-29T01:44:31.958Z,101679.56
2019-04-29T01:47:01.825Z,101672.00
2019-04-29T01:49:31.681Z,101667.16
2019-04-29T01:52:02.003Z,101672.73
2019-04-29T01:54:31.832Z,101682.02
2019-04-29T01:57:01.794Z,101676.97
2019-04-29T01:59:32.179Z,101687.95
2019-04-29T02:02:01.955Z,101681.86
2019-04-29T02:04:31.847Z,101686.18
2019-04-29T02:07:03.424Z,101685.09
2019-04-29T02:09:38.335Z,101681.69
2019-04-29T02:12:08.490Z,101678.66
2019-04-29T02:14:38.495Z,101678.48
2019-04-29T02:17:08.515Z,101675.80
2019-04-29T02:19:38.529Z,101672.73
2019-04-29T02:22:12.949Z,101675.80
2019-04-29T02:24:46.118Z,101678.09
2019-04-29T02:27:16.060Z,101676.84
2019-04-29T02:29:46.234Z,101673.98
2019-04-29T02:32:16.390Z,101675.23
2019-04-29T02:34:46.204Z,101670.05
2019-04-29T02:37:21.090Z,101672.91
2019-04-29T02:39:57.208Z,101675.06
2019-04-29T02:42:34.893Z,101675.02
2019-04-29T02:45:10.727Z,101668.36
2019-04-29T02:47:40.569Z,101671.05
2019-04-29T02:50:11.035Z,101659.94
2019-04-29T02:52:40.849Z,101656.73
2019-04-29T02:55:13.699Z,101661.36
2019-04-29T02:57:53.056Z,101661.02
2019-04-29T03:00:31.446Z,101663.69
2019-04-29T03:03:14.039Z,101670.34
2019-04-29T03:05:49.992Z,101664.25
2019-04-29T03:08:19.845Z,101659.23
2019-04-29T03:10:49.755Z,101649.39
2019-04-29T03:13:19.972Z,101656.17
2019-04-29T03:15:50.838Z,101659.06
2019-04-29T03:18:23.397Z,101654.23
2019-04-29T03:20:58.353Z,101654.75
2019-04-29T03:23:28.482Z,101650.46
2019-04-29T03:25:58.688Z,101655.30
2019-04-29T03:28:28.769Z,101663.70
2019-04-29T03:30:58.899Z,101659.41
2019-04-29T03:33:29.158Z,101656.56
2019-04-29T03:35:59.992Z,101654.96
2019-04-29T03:38:30.101Z,101626.08
2019-04-29T03:41:00.324Z,101649.20
2019-04-29T03:43:30.664Z,101650.45
2019-04-29T03:46:00.464Z,101646.70
2019-04-29T03:48:30.283Z,101653.32
2019-04-29T03:51:00.178Z,101650.68
2019-04-29T03:53:30.065Z,101658.38
2019-04-29T03:56:00.084Z,101658.03
2019-04-29T03:58:29.876Z,101661.97
2019-04-29T04:01:20.531Z,101662.66
2019-04-29T04:03:55.172Z,101659.45
2019-04-29T04:06:37.758Z,101666.03
2019-04-29T04:09:14.516Z,101664.25
2019-04-29T04:11:44.445Z,101666.20
2019-04-29T04:14:14.816Z,101663.52
2019-04-29T04:17:19.971Z,101655.48
2019-04-29T04:19:48.089Z,101660.84
2019-04-29T04:22:18.060Z,101652.80
2019-04-29T04:24:47.882Z,101651.16
2019-04-29T04:27:17.668Z,101654.92
2019-04-29T04:29:47.546Z,101659.77
2019-04-29T04:32:18.764Z,101663.05
2019-04-29T04:35:40.268Z,101663.05
2019-04-29T04:38:10.250Z,101659.28
2019-04-29T04:40:47.593Z,101657.86
2019-04-29T04:43:19.463Z,101651.41
2019-04-29T04:45:50.894Z,101661.27
2019-04-29T04:48:20.677Z,101655.70
2019-04-29T04:50:51.331Z,101657.09
2019-04-29T04:53:21.299Z,101655.70
2019-04-29T04:55:56.688Z,101656.98
2019-04-29T04:58:26.709Z,101656.08
2019-04-29T05:00:56.599Z,101660.05
2019-04-29T05:03:26.560Z,101656.98
2019-04-29T05:05:57.030Z,101650.39
2019-04-29T05:08:26.877Z,101651.64
2019-04-29T05:10:56.620Z,101654.13
2019-04-29T05:13:28.711Z,101656.64
2019-04-29T05:15:58.853Z,101658.45
2019-04-29T05:18:28.840Z,101664.16
2019-04-29T05:20:59.070Z,101666.66
2019-04-29T05:23:28.969Z,101661.47
2019-04-29T05:25:58.763Z,101657.52
2019-04-29T05:28:28.739Z,101663.60
2019-04-29T05:30:58.585Z,101663.59
2019-04-29T05:33:28.722Z,101673.48
2019-04-29T05:36:09.595Z,101677.42
2019-04-29T05:38:55.344Z,101674.88
2019-04-29T05:41:30.014Z,101677.58
2019-04-29T05:44:31.798Z,101645.31
2019-04-29T05:47:11.676Z,101684.42
2019-04-29T05:49:49.132Z,101692.28
2019-04-29T05:52:26.231Z,101689.59
2019-04-29T05:54:56.419Z,101694.77
2019-04-29T05:57:27.089Z,101690.97
2019-04-29T05:59:57.032Z,101701.39
2019-04-29T06:02:33.234Z,101699.38
2019-04-29T06:04:58.702Z,101701.36
2019-04-29T06:07:28.563Z,101705.84
2019-04-29T06:09:58.412Z,101700.45
2019-04-29T06:12:28.161Z,101703.70
2019-04-29T06:14:58.455Z,101700.80
2019-04-29T06:17:28.471Z,101707.80
2019-04-29T06:19:58.583Z,101704.87
2019-04-29T06:22:28.790Z,101700.56
2019-04-29T06:24:58.628Z,101701.28
2019-04-29T06:27:28.476Z,101705.27
2019-04-29T06:30:02.869Z,101710.60
2019-04-29T06:32:30.376Z,101705.55
2019-04-29T06:35:00.658Z,101709.67
2019-04-29T06:37:30.610Z,101707.49
2019-04-29T06:40:00.464Z,101699.73
2019-04-29T06:42:33.537Z,101700.44
2019-04-29T06:45:03.963Z,101699.66
2019-04-29T06:47:33.909Z,101700.13
2019-04-29T06:50:04.354Z,101704.27
2019-04-29T06:52:34.135Z,101700.11
2019-04-29T06:55:04.661Z,101696.11
2019-04-29T06:57:34.892Z,101695.15
2019-04-29T07:00:05.660Z,101699.41
2019-04-29T07:02:35.493Z,101702.94
2019-04-29T07:05:06.478Z,101700.64
2019-04-29T07:07:36.636Z,101707.81
2019-04-29T07:10:06.763Z,101705.57
2019-04-29T07:12:36.636Z,101697.97
2019-04-29T07:15:07.548Z,101703.52
2019-04-29T07:17:41.310Z,101702.39
2019-04-29T07:20:12.281Z,101694.94
2019-04-29T07:22:42.296Z,101704.16
2019-04-29T07:25:12.217Z,101700.33
2019-04-29T07:27:44.192Z,101698.52
2019-04-29T07:30:14.892Z,101699.36
2019-04-29T07:32:47.151Z,101706.35
2019-04-29T07:35:16.738Z,101700.36
2019-04-29T07:37:46.603Z,101698.31
2019-04-29T07:40:17.376Z,101696.93
2019-04-29T07:42:47.361Z,101704.09
2019-04-29T07:45:28.148Z,101703.13
2019-04-29T07:48:01.836Z,101710.31
2019-04-29T07:50:30.124Z,101700.91
2019-04-29T07:53:00.024Z,101701.66
2019-04-29T07:55:31.001Z,101700.23
2019-04-29T07:58:01.662Z,101703.27
2019-04-29T08:00:35.586Z,101702.02
2019-04-29T08:03:08.007Z,101703.08
2019-04-29T08:05:37.931Z,101697.72
2019-04-29T08:08:07.946Z,101708.17
2019-04-29T08:10:52.568Z,101704.77
2019-04-29T08:13:12.709Z,101694.52
2019-04-29T08:15:43.625Z,101686.40
2019-04-29T08:18:16.263Z,101691.41
2019-04-29T08:20:46.393Z,101689.62
2019-04-29T08:23:16.421Z,101691.63
2019-04-29T08:25:46.693Z,101697.91
2019-04-29T08:28:16.622Z,101694.14
2019-04-29T08:30:47.377Z,101694.87
2019-04-29T08:33:18.235Z,101695.41
2019-04-29T08:35:48.128Z,101690.42
2019-04-29T08:38:18.694Z,101694.70
2019-04-29T08:40:49.984Z,101691.81
2019-04-29T08:43:37.961Z,101688.44
2019-04-29T08:46:13.701Z,101695.64
2019-04-29T08:48:45.919Z,101698.71
2019-04-29T08:51:15.568Z,101702.09
2019-04-29T08:53:45.529Z,101697.73
2019-04-29T08:56:15.495Z,101706.75
2019-04-29T08:58:49.185Z,101709.85
2019-04-29T09:01:17.226Z,101706.61
2019-04-29T09:03:47.001Z,101708.75
2019-04-29T09:06:16.860Z,101697.08
2019-04-29T09:08:54.639Z,101695.58
2019-04-29T09:11:19.090Z,101696.60
2019-04-29T09:13:49.309Z,101699.62
2019-04-29T09:16:19.531Z,101699.27
2019-04-29T09:18:49.863Z,101698.22
2019-04-29T09:21:19.966Z,101698.19
2019-04-29T09:23:49.825Z,101695.48
2019-04-29T09:26:43.251Z,101701.03
2019-04-29T09:29:31.836Z,101696.72
2019-04-29T09:32:02.019Z,101694.36
2019-04-29T09:34:31.925Z,101695.48
2019-04-29T09:37:02.101Z,101692.85
2019-04-29T09:39:43.069Z,101692.14
2019-04-29T09:42:30.752Z,101695.55
2019-04-29T09:45:19.554Z,101683.33
2019-04-29T09:47:49.387Z,101689.31
2019-04-29T09:50:19.828Z,101692.38
2019-04-29T09:52:50.320Z,101687.67
2019-04-29T09:55:21.421Z,101688.39
2019-04-29T09:57:51.250Z,101681.17
2019-04-29T10:00:52.928Z,101683.28
2019-04-29T10:03:31.377Z,101681.48
2019-04-29T10:06:08.166Z,101679.31
2019-04-29T10:08:38.015Z,101679.67
2019-04-29T10:11:08.719Z,101685.42
2019-04-29T10:13:38.920Z,101675.84
2019-04-29T10:16:16.524Z,101673.87
2019-04-29T10:18:53.952Z,101673.16
2019-04-29T10:21:24.246Z,101673.87
2019-04-29T10:23:54.188Z,101673.78
2019-04-29T10:26:25.077Z,101666.27
2019-04-29T10:28:59.136Z,101665.06
2019-04-29T10:31:29.228Z,101665.47
2019-04-29T10:34:00.158Z,101657.02
2019-04-29T10:36:30.401Z,101655.35
2019-04-29T10:39:04.905Z,101653.19
2019-04-29T10:41:40.371Z,101648.86
2019-04-29T10:44:31.734Z,101653.70
2019-04-29T10:47:34.804Z,101644.73
2019-04-29T10:50:15.516Z,101647.55
2019-04-29T10:52:46.383Z,101649.70
2019-04-29T10:55:17.863Z,101650.16
2019-04-29T10:57:49.709Z,101647.28
2019-04-29T11:00:35.991Z,101655.58
2019-04-29T11:03:06.164Z,101638.66
2019-04-29T11:05:38.848Z,101627.38
2019-04-29T11:08:20.952Z,101620.91
2019-04-29T11:10:50.814Z,101617.85
2019-04-29T11:13:20.725Z,101607.98
2019-04-29T11:15:51.260Z,101609.78
2019-04-29T11:18:23.339Z,101613.69
2019-04-29T11:20:55.322Z,101618.66
2019-04-29T11:23:37.202Z,101610.81
2019-04-29T11:26:25.278Z,101613.33
2019-04-29T11:28:56.921Z,101611.40
2019-04-29T11:31:27.029Z,101602.75
2019-04-29T11:34:11.497Z,101606.02
2019-04-29T11:36:44.068Z,101602.37
2019-04-29T11:39:15.701Z,101594.92
2019-04-29T11:41:49.942Z,101586.62
2019-04-29T11:44:21.837Z,101597.20
2019-04-29T11:46:51.675Z,101603.66
2019-04-29T11:49:27.451Z,101597.76
2019-04-29T11:52:09.044Z,101599.06
2019-04-29T11:54:29.226Z,101582.37
2019-04-29T11:56:59.200Z,101586.70
2019-04-29T11:59:37.408Z,101587.96
2019-04-29T12:02:44.143Z,101585.52
2019-04-29T12:05:04.187Z,101584.97
2019-04-29T12:07:34.164Z,101582.73
2019-04-29T12:10:06.512Z,101576.75
2019-04-29T12:12:36.942Z,101569.20
2019-04-29T12:15:23.110Z,101569.08
2019-04-29T12:18:04.274Z,101579.34
2019-04-29T12:20:51.617Z,101581.86
2019-04-29T12:23:21.763Z,101573.83
2019-04-29T12:25:52.138Z,101581.19
2019-04-29T12:28:22.119Z,101585.39
2019-04-29T12:30:54.881Z,101576.78
2019-04-29T12:33:36.937Z,101583.35
2019-04-29T12:36:11.164Z,101576.31
2019-04-29T12:38:58.599Z,101566.72
2019-04-29T12:41:49.290Z,101563.77
2019-04-29T12:44:34.629Z,101558.64
2019-04-29T12:47:02.449Z,101558.30
2019-04-29T12:49:32.388Z,101563.41
2019-04-29T12:52:02.292Z,101565.97
2019-04-29T12:54:32.176Z,101561.69
2019-04-29T12:57:02.065Z,101559.88
2019-04-29T12:59:35.577Z,101557.00
2019-04-29T13:02:24.267Z,101564.52
2019-04-29T13:05:00.801Z,101557.87
2019-04-29T13:07:56.111Z,101556.69
2019-04-29T13:10:42.324Z,101550.98
2019-04-29T13:13:15.759Z,101548.42
2019-04-29T13:15:54.492Z,101550.36
2019-04-29T13:18:34.626Z,101545.20
2019-04-29T13:21:10.261Z,101545.20
2019-04-29T13:23:53.560Z,101530.84
2019-04-29T13:26:08.202Z,101548.42
2019-04-29T13:31:11.290Z,101545.83
2019-04-29T13:33:22.638Z,101540.80
2019-04-29T13:33:41.351Z,101535.20
2019-04-29T13:36:11.541Z,101537.21
2019-04-29T13:38:42.823Z,101540.98
2019-04-29T13:41:18.558Z,101529.74
2019-04-29T13:43:45.010Z,101536.59
2019-04-29T13:46:28.430Z,101530.95
2019-04-29T13:49:23.569Z,101520.58
2019-04-29T13:51:54.368Z,101517.19
2019-04-29T13:54:24.431Z,101510.86
2019-04-29T13:56:56.714Z,101509.25
2019-04-29T13:59:33.661Z,101486.55
2019-04-29T14:02:31.432Z,101504.95
2019-04-29T14:05:00.176Z,101506.41
2019-04-29T14:07:30.769Z,101509.62
2019-04-29T14:10:01.168Z,101510.80
2019-04-29T14:12:48.748Z,101525.41
2019-04-29T14:15:03.006Z,101516.98
2019-04-29T14:17:35.622Z,101513.25
2019-04-29T14:20:05.354Z,101508.06
2019-04-29T14:22:35.224Z,101517.31
2019-04-29T14:25:05.277Z,101512.59
2019-04-29T14:27:35.170Z,101504.99
2019-04-29T14:30:10.440Z,101503.73
2019-04-29T14:32:42.380Z,101503.02
2019-04-29T14:35:19.703Z,101503.34
2019-04-29T14:37:55.319Z,101512.30
2019-04-29T14:40:21.524Z,101501.84
2019-04-29T14:43:26.270Z,101501.44
2019-04-29T14:46:15.995Z,101501.58
2019-04-29T14:48:45.627Z,101500.03
2019-04-29T14:51:15.527Z,101504.16
2019-04-29T14:53:56.391Z,101502.99
2019-04-29T14:56:17.401Z,101494.56
2019-04-29T14:58:47.571Z,101494.19
2019-04-29T15:01:28.716Z,101500.83
2019-04-29T15:04:17.294Z,101496.41
2019-04-29T15:06:35.168Z,101498.49
2019-04-29T15:09:08.727Z,101473.63
2019-04-29T15:11:47.388Z,101496.97
2019-04-29T15:14:48.130Z,101496.41
2019-04-29T15:17:44.950Z,101493.19
2019-04-29T15:20:34.890Z,101494.54
2019-04-29T15:23:05.066Z,101493.97
2019-04-29T15:25:34.936Z,101490.88
2019-04-29T15:28:04.886Z,101492.20
2019-04-29T15:30:36.875Z,101490.40
2019-04-29T15:33:07.926Z,101489.14
2019-04-29T15:35:38.173Z,101486.77
2019-04-29T15:38:08.944Z,101487.91
2019-04-29T15:40:43.039Z,101486.23
2019-04-29T15:43:11.050Z,101476.53
2019-04-29T15:45:41.028Z,101480.77
2019-04-29T15:48:10.941Z,101481.45
2019-04-29T15:50:40.751Z,101476.89
2019-04-29T15:53:10.817Z,101479.30
2019-04-29T15:55:42.170Z,101463.86
2019-04-29T15:58:12.115Z,101478.66
2019-04-29T16:00:43.483Z,101479.41
2019-04-29T16:03:17.831Z,101480.25
2019-04-29T16:06:19.793Z,101474.16
2019-04-29T16:08:58.378Z,101479.14
2019-04-29T16:11:42.652Z,101477.94
2019-04-29T16:14:17.775Z,101476.83
2019-04-29T16:16:47.759Z,101475.13
2019-04-29T16:19:17.718Z,101470.08
2019-04-29T16:21:47.583Z,101474.52
2019-04-29T16:24:26.525Z,101470.28
2019-04-29T16:26:53.447Z,101481.24
2019-04-29T16:29:20.967Z,101479.74
2019-04-29T16:31:54.942Z,101471.13
2019-04-29T16:34:22.402Z,101470.43
2019-04-29T16:36:52.688Z,101472.89
2019-04-29T16:39:22.709Z,101467.13
2019-04-29T16:42:11.044Z,101471.81
2019-04-29T16:44:42.530Z,101473.11
2019-04-29T16:47:13.659Z,101465.45
2019-04-29T16:49:44.544Z,101468.92
2019-04-29T16:52:14.813Z,101455.92
2019-04-29T16:54:44.676Z,101457.21
2019-04-29T16:57:14.815Z,101459.95
2019-04-29T16:59:44.584Z,101457.42
2019-04-29T17:02:19.427Z,101453.11
2019-04-29T17:04:46.113Z,101458.84
2019-04-29T17:07:17.059Z,101459.69
2019-04-29T17:10:09.028Z,101455.15
2019-04-29T17:12:42.851Z,101462.45
2019-04-29T17:15:24.220Z,101464.25
2019-04-29T17:17:44.989Z,101468.24
2019-04-29T17:20:15.566Z,101470.38
2019-04-29T17:22:45.599Z,101467.55
2019-04-29T17:25:15.693Z,101466.50
2019-04-29T17:27:55.743Z,101460.61
2019-04-29T17:30:54.444Z,101466.91
2019-04-29T17:33:49.711Z,101462.00
2019-04-29T17:36:22.930Z,101463.28
2019-04-29T17:38:47.518Z,101464.13
2019-04-29T17:41:17.352Z,101469.86
2019-04-29T17:44:14.485Z,101473.50
2019-04-29T17:47:02.706Z,101468.60
2019-04-29T17:49:54.793Z,101474.91
2019-04-29T17:52:27.994Z,101477.07
2019-04-29T17:55:05.827Z,101477.48
2019-04-29T17:57:43.401Z,101481.48
2019-04-29T18:00:43.746Z,101487.23
2019-04-29T18:03:41.186Z,101486.38
2019-04-29T18:06:12.607Z,101492.13
2019-04-29T18:09:04.937Z,101484.42
2019-04-29T18:11:49.610Z,101489.10
2019-04-29T18:14:09.454Z,101493.09
2019-04-29T18:16:43.652Z,101492.72
2019-04-29T18:19:19.892Z,101502.09
2019-04-29T18:22:18.091Z,101506.59
2019-04-29T18:24:56.831Z,101514.52
2019-04-29T18:27:27.788Z,101512.16
2019-04-29T18:29:58.036Z,101508.91
2019-04-29T18:32:35.651Z,101513.05
2019-04-29T18:34:59.899Z,101509.11
2019-04-29T18:37:30.372Z,101515.59
2019-04-29T18:40:03.390Z,101515.05
2019-04-29T18:42:33.761Z,101516.14
2019-04-29T18:45:05.086Z,101522.62
2019-04-29T18:47:38.615Z,101524.63
2019-04-29T18:50:09.046Z,101525.14
2019-04-29T18:52:38.862Z,101529.83
2019-04-29T18:55:08.891Z,101528.02
2019-04-29T18:57:39.131Z,101532.91
2019-04-29T19:00:12.092Z,101530.08
2019-04-29T19:02:47.355Z,101534.07
2019-04-29T19:05:21.371Z,101535.48
2019-04-29T19:07:55.150Z,101548.09
2019-04-29T19:10:32.979Z,101543.41
2019-04-29T19:12:59.774Z,101549.00
2019-04-29T19:15:27.677Z,101538.36
2019-04-29T19:17:59.777Z,101549.55
2019-04-29T19:20:29.151Z,101544.52
2019-04-29T19:23:05.681Z,101543.80
2019-04-29T19:25:32.402Z,101539.68
2019-04-29T19:28:11.943Z,101551.02
2019-04-29T19:30:35.641Z,101558.38
2019-04-29T19:33:08.797Z,101559.08
2019-04-29T19:35:38.703Z,101558.92
2019-04-29T19:38:12.458Z,101562.37
2019-04-29T19:40:42.642Z,101561.66
2019-04-29T19:43:15.364Z,101561.47
2019-04-29T19:45:48.846Z,101566.55
2019-04-29T19:48:16.536Z,101567.66
2019-04-29T19:50:50.094Z,101560.66
2019-04-29T19:53:18.457Z,101561.20
2019-04-29T19:55:48.422Z,101565.14
2019-04-29T19:58:28.265Z,101560.64
2019-04-29T20:00:51.490Z,101565.30
2019-04-29T20:03:25.189Z,101565.30
2019-04-29T20:06:07.998Z,101564.19
2019-04-29T20:08:50.094Z,101563.83
2019-04-29T20:11:12.285Z,101569.98
2019-04-29T20:13:39.658Z,101570.88
2019-04-29T20:16:23.002Z,101546.59
2019-04-29T20:19:15.208Z,101568.56
2019-04-29T20:21:37.980Z,101567.51
2019-04-29T20:24:09.810Z,101581.17
2019-04-29T20:26:43.558Z,101566.05
2019-04-29T20:29:11.661Z,101565.30
2019-04-29T20:31:48.520Z,101567.66
2019-04-29T20:34:13.571Z,101566.61
2019-04-29T20:36:45.523Z,101567.91
2019-04-29T20:39:20.758Z,101569.07
2019-04-29T20:41:48.853Z,101576.09
2019-04-29T20:44:18.846Z,101569.83
2019-04-29T20:47:12.702Z,101574.56
2019-04-29T20:49:20.796Z,101573.66
2019-04-29T20:51:55.608Z,101574.27
2019-04-29T20:54:27.703Z,101572.03
2019-04-29T20:57:04.942Z,101570.71
2019-04-29T20:59:30.266Z,101574.78
2019-04-29T21:02:12.073Z,101577.69
2019-04-29T21:04:39.300Z,101578.44
2019-04-29T21:07:07.040Z,101585.64
2019-04-29T21:09:37.136Z,101578.52
2019-04-29T21:12:20.997Z,101586.50
2019-04-29T21:14:56.217Z,101580.64
2019-04-29T21:17:30.679Z,101583.94
2019-04-29T21:19:57.184Z,101592.63
2019-04-29T21:22:27.455Z,101583.49
2019-04-29T21:24:57.750Z,101584.78
2019-04-29T21:27:27.741Z,101586.27
2019-04-29T21:29:57.764Z,101585.04
2019-04-29T21:32:30.504Z,101583.10
2019-04-29T21:35:10.210Z,101583.48
2019-04-29T21:37:48.061Z,101586.58
2019-04-29T21:40:31.855Z,101588.73
2019-04-29T21:43:13.670Z,101592.70
2019-04-29T21:45:44.965Z,101601.16
2019-04-29T21:48:13.106Z,101597.92
2019-04-29T21:50:44.824Z,101595.95
2019-04-29T21:53:15.804Z,101607.45
2019-04-29T21:55:45.959Z,101606.75
2019-04-29T21:58:15.905Z,101609.24
2019-04-29T22:00:45.928Z,101614.73
2019-04-29T22:03:19.813Z,101609.84
2019-04-29T22:05:49.326Z,101614.30
2019-04-29T22:08:25.096Z,101618.95
2019-04-29T22:10:52.510Z,101618.59
2019-04-29T22:13:22.696Z,101616.23
2019-04-29T22:15:52.751Z,101623.95
2019-04-29T22:18:22.648Z,101619.59
2019-04-29T22:20:52.660Z,101621.53
2019-04-29T22:23:22.689Z,101626.37
2019-04-29T22:25:54.738Z,101631.05
2019-04-29T22:28:24.893Z,101626.21
2019-04-29T22:30:56.201Z,101623.56
2019-04-29T22:33:29.694Z,101622.03
2019-04-29T22:35:58.208Z,101617.84
2019-04-29T22:38:28.151Z,101624.33
2019-04-29T22:41:00.283Z,101624.87
2019-04-29T22:43:48.475Z,101628.69
2019-04-29T22:46:18.330Z,101625.68
2019-04-29T22:48:48.844Z,101631.62
2019-04-29T22:51:19.199Z,101639.02
2019-04-29T22:53:48.915Z,101635.44
2019-04-29T22:56:18.959Z,101628.27
2019-04-29T22:58:48.827Z,101632.42
2019-04-29T23:01:18.865Z,101634.59
2019-04-29T23:03:48.901Z,101633.51
2019-04-29T23:06:18.715Z,101632.11
2019-04-29T23:08:48.586Z,101629.28
2019-04-29T23:11:19.925Z,101638.79
2019-04-29T23:13:49.918Z,101634.30
2019-04-29T23:16:20.131Z,101633.78
2019-04-29T23:18:50.159Z,101635.56
2019-04-29T23:21:45.016Z,101633.75
2019-04-29T23:24:30.040Z,101635.19
2019-04-29T23:27:00.001Z,101633.21
2019-04-29T23:29:30.026Z,101635.20
2019-04-29T23:32:04.728Z,101630.90
2019-04-29T23:34:31.563Z,101633.08
2019-04-29T23:37:01.454Z,101630.77
2019-04-29T23:39:31.468Z,101628.81
2019-04-29T23:42:04.730Z,101628.84
2019-04-29T23:44:32.939Z,101621.84
2019-04-29T23:47:05.326Z,101620.05
2019-04-29T23:49:35.420Z,101624.17
2019-04-29T23:52:06.773Z,101624.19
2019-04-29T23:54:44.210Z,101619.90
2019-04-29T23:57:25.518Z,101614.70
